Time;durP1;ratioP1;P1;durP2;ratioP2;P2;SDS_P1;SDS_P2;PMS_P1;PMS_P2;Temp;Humidity;BMP_temperature;BMP_pressure;BME280_temperature;BME280_humidity;BME280_pressure;Samples;Min_cycle;Max_cycle;Signal;HPM_P1;HPM_P2
2023/04/28 00:01:42;;;;;;;14.00;8.93;;;8.70;99.90;;;;;;5173246;27;20441;-59
2023/04/28 00:04:07;;;;;;;14.98;10.25;;;8.70;99.90;;;;;;5173616;27;20388;-59
2023/04/28 00:06:33;;;;;;;17.38;9.85;;;8.70;99.90;;;;;;5173096;27;20046;-57
2023/04/28 00:08:59;;;;;;;15.75;9.63;;;8.60;99.90;;;;;;5172759;27;20034;-56
2023/04/28 00:11:24;;;;;;;14.95;9.65;;;8.60;99.90;;;;;;5174009;27;20034;-59
2023/04/28 00:13:50;;;;;;;16.88;10.00;;;8.60;99.90;;;;;;5171578;27;20045;-56
2023/04/28 00:16:16;;;;;;;14.38;9.45;;;8.60;99.90;;;;;;5173096;27;20038;-58
2023/04/28 00:18:42;;;;;;;15.30;9.30;;;8.50;99.90;;;;;;5172954;27;20030;-58
2023/04/28 00:21:08;;;;;;;17.15;10.55;;;8.50;99.90;;;;;;5174387;27;20034;-56
2023/04/28 00:23:34;;;;;;;14.48;9.95;;;8.50;99.90;;;;;;5135261;27;20073;-58
2023/04/28 00:26:00;;;;;;;16.95;10.73;;;8.40;99.90;;;;;;5169691;27;20035;-58
2023/04/28 00:28:25;;;;;;;16.88;10.50;;;8.40;99.90;;;;;;5133357;27;20050;-56
2023/04/28 00:30:51;;;;;;;15.75;10.32;;;8.30;99.90;;;;;;5169644;27;20491;-59
2023/04/28 00:33:16;;;;;;;19.02;10.15;;;8.30;99.90;;;;;;5172482;27;20037;-58
2023/04/28 00:35:42;;;;;;;16.65;10.27;;;8.30;99.90;;;;;;5172933;27;20485;-57
2023/04/28 00:38:08;;;;;;;15.05;10.13;;;8.20;99.90;;;;;;5136328;27;20038;-58
2023/04/28 00:40:38;;;;;;;19.95;10.75;;;8.20;99.90;;;;;;5172685;27;20030;-60
2023/04/28 00:43:04;;;;;;;17.90;10.27;;;8.10;99.90;;;;;;5171751;27;20485;-59
2023/04/28 00:45:30;;;;;;;18.10;9.82;;;8.10;99.90;;;;;;5173244;27;20077;-56
2023/04/28 00:47:57;;;;;;;17.05;9.90;;;8.10;99.90;;;;;;5172024;27;20048;-57
2023/04/28 00:50:24;;;;;;;14.60;9.80;;;8.10;99.90;;;;;;5140911;27;20053;-57
2023/04/28 00:52:51;;;;;;;15.75;10.35;;;8.10;99.90;;;;;;5168814;27;20065;-53
2023/04/28 00:55:17;;;;;;;17.10;10.20;;;8.00;99.90;;;;;;5173507;27;20081;-56
2023/04/28 00:57:43;;;;;;;17.58;10.13;;;8.00;99.90;;;;;;5171591;27;20473;-57
2023/04/28 01:00:10;;;;;;;16.05;10.02;;;8.00;99.90;;;;;;5172727;27;20041;-58
2023/04/28 01:02:36;;;;;;;15.20;10.02;;;8.00;99.90;;;;;;5171652;27;20072;-59
2023/04/28 01:05:02;;;;;;;18.30;10.57;;;8.00;99.90;;;;;;5139483;27;20454;-57
2023/04/28 01:07:28;;;;;;;18.80;10.45;;;8.00;99.90;;;;;;5170704;27;20036;-58
2023/04/28 01:09:54;;;;;;;17.27;10.45;;;8.00;99.90;;;;;;5167217;27;20082;-55
2023/04/28 01:12:20;;;;;;;17.55;10.25;;;8.00;99.90;;;;;;5171627;27;20066;-59
2023/04/28 01:14:47;;;;;;;17.83;10.20;;;8.00;99.90;;;;;;5170801;27;20485;-55
2023/04/28 01:17:13;;;;;;;18.65;10.52;;;8.00;99.90;;;;;;5171614;27;20031;-60
2023/04/28 01:19:39;;;;;;;16.95;10.02;;;8.00;99.90;;;;;;5172420;27;20038;-59
2023/04/28 01:22:05;;;;;;;16.77;10.90;;;8.00;99.90;;;;;;5171203;27;20118;-56
2023/04/28 01:24:31;;;;;;;15.18;9.82;;;8.00;99.90;;;;;;5138118;27;20070;-59
2023/04/28 01:26:57;;;;;;;15.38;10.00;;;8.00;99.90;;;;;;5171580;27;20117;-57
2023/04/28 01:29:22;;;;;;;15.27;10.30;;;8.00;99.90;;;;;;5172983;27;20529;-55
2023/04/28 01:31:48;;;;;;;15.65;10.20;;;7.90;99.90;;;;;;5173387;27;20484;-59
2023/04/28 01:34:14;;;;;;;18.20;10.10;;;7.90;99.90;;;;;;5173145;27;20030;-60
2023/04/28 01:36:39;;;;;;;15.57;10.07;;;7.90;99.90;;;;;;5171738;27;20113;-55
2023/04/28 01:39:05;;;;;;;19.13;10.68;;;7.80;99.90;;;;;;5171298;27;20034;-57
2023/04/28 01:41:33;;;;;;;17.77;10.38;;;7.80;99.90;;;;;;5170817;27;20049;-57
2023/04/28 01:43:59;;;;;;;15.80;10.70;;;7.80;99.90;;;;;;5171683;27;20088;-55
2023/04/28 01:46:25;;;;;;;23.05;11.55;;;7.80;99.90;;;;;;5136635;27;21283;-57
2023/04/28 01:48:51;;;;;;;15.20;10.23;;;7.70;99.90;;;;;;5146038;27;20041;-57
2023/04/28 01:51:16;;;;;;;14.85;10.60;;;7.70;99.90;;;;;;5171126;27;20098;-59
2023/04/28 01:53:42;;;;;;;15.65;10.35;;;7.70;99.90;;;;;;5141178;27;20050;-57
2023/04/28 01:56:08;;;;;;;16.73;9.55;;;7.60;99.90;;;;;;5170402;27;20034;-56
2023/04/28 01:58:34;;;;;;;17.58;10.63;;;7.70;99.90;;;;;;5170424;27;20030;-59
2023/04/28 02:00:59;;;;;;;15.35;10.15;;;7.60;99.90;;;;;;5137272;27;20045;-58
2023/04/28 02:03:26;;;;;;;15.70;10.40;;;7.60;99.90;;;;;;5168612;27;20070;-56
2023/04/28 02:05:52;;;;;;;17.58;10.38;;;7.50;99.90;;;;;;5171420;27;20171;-56
2023/04/28 02:08:17;;;;;;;17.40;10.57;;;7.50;99.90;;;;;;5170784;27;20144;-58
2023/04/28 02:10:44;;;;;;;16.30;10.25;;;7.50;99.90;;;;;;5170782;27;20034;-57
2023/04/28 02:13:10;;;;;;;19.58;9.57;;;7.40;99.90;;;;;;5171155;27;20038;-58
2023/04/28 02:15:40;;;;;;;15.25;10.15;;;7.50;99.90;;;;;;5171372;27;20038;-55
2023/04/28 02:18:05;;;;;;;17.85;10.00;;;7.40;99.90;;;;;;5173139;27;20038;-58
2023/04/28 02:20:31;;;;;;;16.25;9.85;;;7.40;99.90;;;;;;5153953;27;20049;-58
2023/04/28 02:22:57;;;;;;;16.73;9.40;;;7.40;99.90;;;;;;5166596;27;20042;-57
2023/04/28 02:25:22;;;;;;;19.92;10.20;;;7.40;99.90;;;;;;5168720;27;20053;-58
2023/04/28 02:27:48;;;;;;;18.73;10.73;;;7.40;99.90;;;;;;5171175;27;20026;-59
2023/04/28 02:30:14;;;;;;;16.83;9.75;;;7.60;99.90;;;;;;5171067;27;20038;-55
2023/04/28 02:32:39;;;;;;;17.30;9.13;;;7.40;99.90;;;;;;5170765;27;20454;-59
2023/04/28 02:35:05;;;;;;;17.52;9.95;;;7.40;99.90;;;;;;5171843;27;20037;-58
2023/04/28 02:37:31;;;;;;;15.32;9.75;;;7.40;99.90;;;;;;5169979;27;20076;-58
2023/04/28 02:39:57;;;;;;;16.88;10.43;;;7.50;99.90;;;;;;5164444;27;20488;-59
2023/04/28 02:42:22;;;;;;;14.85;9.57;;;7.40;99.90;;;;;;5112165;27;20039;-61
2023/04/28 02:44:48;;;;;;;16.88;9.77;;;7.40;99.90;;;;;;5160489;27;20113;-57
2023/04/28 02:47:14;;;;;;;15.00;8.95;;;7.40;99.90;;;;;;5170171;27;20034;-57
2023/04/28 02:49:40;;;;;;;18.50;10.32;;;7.40;99.90;;;;;;5168912;27;20046;-55
2023/04/28 02:52:05;;;;;;;18.50;9.73;;;7.40;99.90;;;;;;5130885;27;20049;-57
2023/04/28 02:54:33;;;;;;;15.38;9.98;;;7.40;99.90;;;;;;5156675;27;20113;-55
2023/04/28 02:56:58;;;;;;;16.35;10.15;;;7.40;99.90;;;;;;5129483;27;20431;-57
2023/04/28 02:59:25;;;;;;;17.10;9.43;;;7.30;99.90;;;;;;5139935;27;20092;-59
2023/04/28 03:01:51;;;;;;;16.23;9.52;;;7.30;99.90;;;;;;5174658;27;20045;-58
2023/04/28 03:04:17;;;;;;;14.50;9.52;;;7.30;99.90;;;;;;5174190;27;20034;-58
2023/04/28 03:06:43;;;;;;;16.00;9.10;;;7.30;99.90;;;;;;5173749;27;20038;-58
2023/04/28 03:09:11;;;;;;;15.75;10.13;;;7.30;99.90;;;;;;5175047;27;20078;-59
2023/04/28 03:11:37;;;;;;;16.60;10.40;;;7.30;99.90;;;;;;5173398;27;20106;-58
2023/04/28 03:14:02;;;;;;;18.45;9.95;;;7.30;99.90;;;;;;5174042;27;20540;-55
2023/04/28 03:16:28;;;;;;;16.77;9.68;;;7.30;99.90;;;;;;5174060;27;20049;-59
2023/04/28 03:18:54;;;;;;;15.55;9.70;;;7.30;99.90;;;;;;5174242;27;20030;-55
2023/04/28 03:21:20;;;;;;;15.35;9.80;;;7.30;99.90;;;;;;5172281;27;20555;-56
2023/04/28 03:23:45;;;;;;;18.75;10.43;;;7.30;99.90;;;;;;5153260;27;20034;-55
2023/04/28 03:26:11;;;;;;;15.70;10.23;;;7.30;99.90;;;;;;5171815;27;20105;-58
2023/04/28 03:28:37;;;;;;;16.15;10.07;;;7.30;99.90;;;;;;5173918;27;20094;-59
2023/04/28 03:31:03;;;;;;;16.27;10.48;;;7.20;99.90;;;;;;5174366;27;20030;-57
2023/04/28 03:33:29;;;;;;;17.58;10.48;;;7.20;99.90;;;;;;5168742;27;20116;-57
2023/04/28 03:35:54;;;;;;;15.43;10.02;;;7.20;99.90;;;;;;5173516;27;20085;-55
2023/04/28 03:38:21;;;;;;;17.70;10.48;;;7.20;99.90;;;;;;5174931;27;20121;-57
2023/04/28 03:40:47;;;;;;;18.65;10.48;;;7.20;99.90;;;;;;5171961;27;20038;-58
2023/04/28 03:43:13;;;;;;;17.92;10.23;;;7.10;99.90;;;;;;5174048;27;20045;-58
2023/04/28 03:45:39;;;;;;;17.95;10.73;;;7.20;99.90;;;;;;5173492;27;20026;-58
2023/04/28 03:48:06;;;;;;;17.00;10.70;;;7.10;99.90;;;;;;5174238;27;20050;-58
2023/04/28 03:50:31;;;;;;;17.42;11.00;;;7.10;99.90;;;;;;5173582;27;20038;-57
2023/04/28 03:52:57;;;;;;;19.48;10.48;;;7.10;99.90;;;;;;5148316;27;20131;-58
2023/04/28 03:55:23;;;;;;;18.80;10.27;;;7.40;99.90;;;;;;5133588;27;20469;-59
2023/04/28 03:57:48;;;;;;;15.13;10.45;;;7.10;99.90;;;;;;5133628;27;20043;-58
2023/04/28 04:00:14;;;;;;;19.90;10.75;;;7.20;99.90;;;;;;5133159;27;20042;-54
2023/04/28 04:02:40;;;;;;;15.40;10.00;;;7.10;99.90;;;;;;5132996;27;20046;-59
2023/04/28 04:05:06;;;;;;;18.33;11.13;;;7.20;99.90;;;;;;5133475;27;20035;-57
2023/04/28 04:07:31;;;;;;;17.40;10.73;;;7.10;99.90;;;;;;5132884;27;20031;-58
2023/04/28 04:09:57;;;;;;;18.08;10.63;;;7.10;99.90;;;;;;5114928;27;20039;-55
2023/04/28 04:12:23;;;;;;;16.75;10.43;;;7.10;99.90;;;;;;5133306;27;20079;-59
2023/04/28 04:14:48;;;;;;;19.33;11.10;;;7.10;99.90;;;;;;5133114;27;20057;-56
2023/04/28 04:17:14;;;;;;;21.45;11.85;;;7.10;99.90;;;;;;5133094;27;20495;-56
2023/04/28 04:19:40;;;;;;;16.13;11.13;;;7.10;99.90;;;;;;5132890;27;20934;-58
2023/04/28 04:22:06;;;;;;;18.50;10.40;;;7.10;99.90;;;;;;5131496;27;20042;-56
2023/04/28 04:24:31;;;;;;;20.25;11.20;;;7.10;99.90;;;;;;5132987;27;20031;-55
2023/04/28 04:26:57;;;;;;;20.38;11.02;;;7.20;99.90;;;;;;5133540;27;20043;-57
2023/04/28 04:29:23;;;;;;;18.52;10.10;;;7.10;99.90;;;;;;5141250;27;20776;-56
2023/04/28 04:31:49;;;;;;;16.35;10.57;;;7.10;99.90;;;;;;5132803;27;20031;-59
2023/04/28 04:34:14;;;;;;;17.15;10.27;;;7.10;99.90;;;;;;5132376;27;20379;-55
2023/04/28 04:36:40;;;;;;;17.13;10.93;;;7.30;99.90;;;;;;5132182;27;20058;-56
2023/04/28 04:39:06;;;;;;;22.73;11.43;;;7.10;99.90;;;;;;5139204;27;20034;-58
2023/04/28 04:41:31;;;;;;;16.90;10.80;;;7.10;99.90;;;;;;5132555;27;20074;-58
2023/04/28 04:43:57;;;;;;;22.10;11.90;;;7.10;99.90;;;;;;5132114;27;20039;-58
2023/04/28 04:46:23;;;;;;;21.10;11.45;;;7.20;99.90;;;;;;5132458;27;20429;-60
2023/04/28 04:48:48;;;;;;;17.75;11.02;;;7.10;99.90;;;;;;5132353;27;20030;-60
2023/04/28 04:51:14;;;;;;;15.63;10.32;;;7.20;99.90;;;;;;5132403;27;20027;-57
2023/04/28 04:53:40;;;;;;;20.33;11.70;;;7.20;99.90;;;;;;5129019;27;20047;-57
2023/04/28 04:56:06;;;;;;;17.85;10.68;;;7.20;99.90;;;;;;5132133;27;20039;-57
2023/04/28 04:58:32;;;;;;;19.10;11.15;;;7.20;99.90;;;;;;5132014;27;20039;-58
2023/04/28 05:00:58;;;;;;;16.05;10.13;;;7.20;99.90;;;;;;5131949;27;20042;-58
2023/04/28 05:03:23;;;;;;;19.33;11.40;;;7.20;99.90;;;;;;5132051;27;20381;-60
2023/04/28 05:05:49;;;;;;;17.17;10.40;;;7.20;99.90;;;;;;5131745;27;20096;-59
2023/04/28 05:08:15;;;;;;;17.65;10.88;;;7.20;99.90;;;;;;5132158;27;20057;-57
2023/04/28 05:10:41;;;;;;;17.42;11.20;;;7.30;99.90;;;;;;5132601;27;20035;-55
2023/04/28 05:13:06;;;;;;;17.42;10.52;;;7.20;99.90;;;;;;5139843;27;20066;-57
2023/04/28 05:15:32;;;;;;;15.55;10.82;;;7.30;99.90;;;;;;5132340;27;20486;-59
2023/04/28 05:17:58;;;;;;;17.83;10.02;;;7.30;99.90;;;;;;5132366;27;20112;-60
2023/04/28 05:20:23;;;;;;;17.25;9.57;;;7.30;99.90;;;;;;5133432;27;20050;-57
2023/04/28 05:22:49;;;;;;;16.08;10.45;;;7.40;99.90;;;;;;5131731;27;20054;-53
2023/04/28 05:25:15;;;;;;;17.42;9.70;;;7.40;99.90;;;;;;5131189;27;20389;-59
2023/04/28 05:27:41;;;;;;;15.88;9.63;;;7.40;99.90;;;;;;5131969;27;20035;-58
2023/04/28 05:30:09;;;;;;;18.20;10.35;;;7.40;99.90;;;;;;5150933;27;20066;-58
2023/04/28 05:32:37;;;;;;;16.77;10.00;;;7.40;99.90;;;;;;5152676;27;20035;-60
2023/04/28 05:35:03;;;;;;;17.00;9.73;;;7.50;99.90;;;;;;5135933;27;20031;-57
2023/04/28 05:37:29;;;;;;;19.52;10.20;;;7.50;99.90;;;;;;5140434;27;20088;-62
2023/04/28 05:39:55;;;;;;;16.27;9.50;;;7.50;99.90;;;;;;5130334;27;20069;-61
2023/04/28 05:42:20;;;;;;;15.70;9.20;;;7.60;99.90;;;;;;5130965;27;20177;-58
2023/04/28 05:44:46;;;;;;;15.77;9.80;;;7.50;99.90;;;;;;5130281;27;20039;-59
2023/04/28 05:47:12;;;;;;;14.63;9.07;;;7.60;99.90;;;;;;5131370;27;20046;-62
2023/04/28 05:49:37;;;;;;;16.40;9.57;;;7.60;99.90;;;;;;5131182;27;20034;-58
2023/04/28 05:52:03;;;;;;;17.45;9.55;;;7.60;99.90;;;;;;5130191;27;20051;-61
2023/04/28 05:54:29;;;;;;;17.58;9.20;;;7.60;99.90;;;;;;5130437;27;20035;-57
2023/04/28 05:56:56;;;;;;;17.60;10.88;;;7.70;99.90;;;;;;5130786;27;20039;-59
2023/04/28 05:59:22;;;;;;;18.00;10.23;;;7.70;99.90;;;;;;5130961;27;20367;-60
2023/04/28 06:01:49;;;;;;;15.32;9.98;;;7.70;99.90;;;;;;5131024;27;20042;-59
2023/04/28 06:04:15;;;;;;;15.55;9.60;;;7.70;99.90;;;;;;5130931;27;20039;-58
2023/04/28 06:06:41;;;;;;;17.10;9.43;;;7.70;99.90;;;;;;5116915;27;20058;-59
2023/04/28 06:09:07;;;;;;;18.33;9.95;;;7.70;99.90;;;;;;5119425;27;20474;-60
2023/04/28 06:11:33;;;;;;;14.63;9.48;;;7.70;99.90;;;;;;5116742;27;20142;-59
2023/04/28 06:13:59;;;;;;;17.88;10.43;;;7.70;99.90;;;;;;5119068;27;20133;-58
2023/04/28 06:16:24;;;;;;;15.15;9.57;;;7.70;99.90;;;;;;5117643;27;20094;-59
2023/04/28 06:18:50;;;;;;;16.33;9.23;;;7.80;99.90;;;;;;5120896;27;20427;-57
2023/04/28 06:21:16;;;;;;;13.93;9.45;;;7.80;99.90;;;;;;5119869;27;20035;-55
2023/04/28 06:23:41;;;;;;;19.17;10.27;;;7.80;99.90;;;;;;5117968;27;20039;-59
2023/04/28 06:26:08;;;;;;;15.02;10.20;;;7.90;99.90;;;;;;5116953;27;20027;-58
2023/04/28 06:28:33;;;;;;;16.65;9.60;;;7.90;99.90;;;;;;5120509;27;20039;-59
2023/04/28 06:31:00;;;;;;;13.85;9.05;;;8.00;99.90;;;;;;5120473;27;20126;-61
2023/04/28 06:33:25;;;;;;;16.27;9.38;;;8.00;99.90;;;;;;5121629;27;20132;-56
2023/04/28 06:35:52;;;;;;;15.30;9.57;;;8.10;99.90;;;;;;5122619;27;20509;-60
2023/04/28 06:38:18;;;;;;;13.23;9.25;;;8.20;99.90;;;;;;5122872;27;20035;-61
2023/04/28 06:40:44;;;;;;;17.35;9.38;;;8.20;99.90;;;;;;5124344;27;20031;-57
2023/04/28 06:43:11;;;;;;;16.45;9.60;;;8.30;99.90;;;;;;5123656;27;20043;-58
2023/04/28 06:45:37;;;;;;;15.85;10.98;;;8.50;99.90;;;;;;5124070;27;20108;-56
2023/04/28 06:48:04;;;;;;;14.57;9.32;;;8.40;99.90;;;;;;5128126;27;20042;-58
2023/04/28 06:50:30;;;;;;;16.73;9.98;;;8.40;99.90;;;;;;5130917;27;20031;-62
2023/04/28 06:52:56;;;;;;;14.88;9.60;;;8.40;99.90;;;;;;5131523;27;20646;-60
2023/04/28 06:55:22;;;;;;;18.17;9.70;;;8.50;99.90;;;;;;5132463;27;20501;-59
2023/04/28 06:57:48;;;;;;;15.30;9.82;;;8.50;99.90;;;;;;5134274;27;20039;-61
2023/04/28 07:00:14;;;;;;;15.60;9.77;;;8.50;99.90;;;;;;5134284;27;20042;-58
2023/04/28 07:02:39;;;;;;;13.43;9.32;;;8.60;99.90;;;;;;5134060;27;20039;-59
2023/04/28 07:05:06;;;;;;;15.00;9.38;;;8.60;99.90;;;;;;5133492;27;20031;-58
2023/04/28 07:07:31;;;;;;;16.70;9.93;;;8.70;99.90;;;;;;5133926;27;20035;-59
2023/04/28 07:09:58;;;;;;;17.48;9.75;;;8.70;99.90;;;;;;5134236;27;20037;-57
2023/04/28 07:12:23;;;;;;;13.70;9.13;;;8.80;99.90;;;;;;5133906;27;20086;-61
2023/04/28 07:14:49;;;;;;;14.38;8.85;;;8.90;99.90;;;;;;5135969;27;20117;-57
2023/04/28 07:17:16;;;;;;;13.95;9.13;;;8.20;99.90;;;;;;5134392;27;20023;-59
2023/04/28 07:19:41;;;;;;;12.95;8.43;;;9.00;99.90;;;;;;5134020;27;20023;-61
2023/04/28 07:22:07;;;;;;;13.75;9.32;;;9.00;99.90;;;;;;5133942;27;20038;-57
2023/04/28 07:24:33;;;;;;;12.98;9.63;;;9.10;99.90;;;;;;5133535;27;20550;-57
2023/04/28 07:26:58;;;;;;;14.13;8.75;;;9.10;99.90;;;;;;5133837;27;20149;-60
2023/04/28 07:29:24;;;;;;;16.05;9.00;;;9.10;99.90;;;;;;5133752;27;20047;-58
2023/04/28 07:31:49;;;;;;;15.80;9.70;;;9.10;99.90;;;;;;5133893;27;20041;-60
2023/04/28 07:34:15;;;;;;;12.75;9.38;;;9.20;99.90;;;;;;5133664;27;20066;-59
2023/04/28 07:36:41;;;;;;;14.38;9.68;;;9.20;99.90;;;;;;5133690;27;20125;-60
2023/04/28 07:39:07;;;;;;;14.73;9.70;;;9.20;99.90;;;;;;5133627;27;20043;-58
2023/04/28 07:41:39;;;;;;;17.33;10.70;;;9.40;99.90;;;;;;5133766;27;20436;-57
2023/04/28 07:44:07;;;;;;;14.02;9.75;;;9.40;99.90;;;;;;5131865;27;20035;-59
2023/04/28 07:46:33;;;;;;;14.57;9.68;;;9.40;99.90;;;;;;5132741;27;20035;-61
2023/04/28 07:48:59;;;;;;;15.27;9.60;;;9.50;99.90;;;;;;5135652;27;20051;-59
2023/04/28 07:51:25;;;;;;;14.00;9.60;;;9.50;99.90;;;;;;5133030;27;20126;-57
2023/04/28 07:53:51;;;;;;;15.40;9.68;;;9.60;99.90;;;;;;5133194;27;20470;-60
2023/04/28 07:56:17;;;;;;;14.13;9.68;;;9.60;99.90;;;;;;5132924;27;20505;-60
2023/04/28 07:58:43;;;;;;;16.42;9.23;;;9.70;99.90;;;;;;5133335;27;20039;-58
2023/04/28 08:01:09;;;;;;;13.85;9.23;;;9.80;99.90;;;;;;5124432;27;20587;-57
2023/04/28 08:03:35;;;;;;;13.88;9.20;;;9.90;99.90;;;;;;5114768;27;20169;-58
2023/04/28 08:06:00;;;;;;;14.55;9.82;;;10.00;99.90;;;;;;5109276;27;20187;-57
2023/04/28 08:08:26;;;;;;;12.32;8.82;;;10.20;99.90;;;;;;5110327;27;20035;-59
2023/04/28 08:10:53;;;;;;;13.73;9.32;;;10.30;99.90;;;;;;5110280;27;20463;-60
2023/04/28 08:13:19;;;;;;;16.15;10.50;;;10.40;99.90;;;;;;5114730;27;20402;-59
2023/04/28 08:15:46;;;;;;;13.85;9.30;;;10.40;99.90;;;;;;5114055;27;20054;-59
2023/04/28 08:18:11;;;;;;;14.68;9.40;;;10.50;99.90;;;;;;5112016;27;20096;-58
2023/04/28 08:20:37;;;;;;;12.20;8.93;;;10.50;99.90;;;;;;5109225;27;20111;-60
2023/04/28 08:23:03;;;;;;;14.77;9.35;;;10.60;99.90;;;;;;5110001;27;20471;-57
2023/04/28 08:25:28;;;;;;;12.98;9.80;;;10.70;99.90;;;;;;5111141;27;20027;-56
2023/04/28 08:27:55;;;;;;;15.63;9.32;;;10.70;99.90;;;;;;5111383;27;20027;-60
2023/04/28 08:30:21;;;;;;;15.10;9.75;;;10.70;99.90;;;;;;5113849;27;20088;-57
2023/04/28 08:32:47;;;;;;;11.65;9.35;;;10.80;99.90;;;;;;5111443;27;20082;-58
2023/04/28 08:35:14;;;;;;;15.73;8.73;;;10.80;99.90;;;;;;5113915;27;20572;-60
2023/04/28 08:37:40;;;;;;;13.55;8.60;;;10.90;99.90;;;;;;5132130;27;20074;-58
2023/04/28 08:40:10;;;;;;;14.15;9.32;;;11.00;99.90;;;;;;5132496;27;20043;-59
2023/04/28 08:42:36;;;;;;;14.50;9.55;;;11.10;99.90;;;;;;5131557;27;20168;-61
2023/04/28 08:45:04;;;;;;;15.30;9.73;;;11.10;99.90;;;;;;5131806;27;20043;-60
2023/04/28 08:47:37;;;;;;;13.65;9.43;;;11.20;99.90;;;;;;5131087;27;20458;-60
2023/04/28 08:50:04;;;;;;;13.10;9.20;;;11.20;99.90;;;;;;5132514;27;20037;-58
2023/04/28 08:52:31;;;;;;;12.60;8.88;;;11.20;99.90;;;;;;5131717;27;20078;-57
2023/04/28 08:55:04;;;;;;;14.82;9.35;;;11.20;99.90;;;;;;5132495;27;20562;-57
2023/04/28 08:57:38;;;;;;;14.77;9.23;;;11.20;99.90;;;;;;5131995;27;20038;-57
2023/04/28 09:00:05;;;;;;;;;;;11.20;99.90;;;;;;5132757;27;20261;-59
2023/04/28 09:02:31;;;;;;;13.40;8.80;;;11.20;99.90;;;;;;5130548;27;19919;-56
2023/04/28 09:04:56;;;;;;;15.63;9.55;;;11.20;99.90;;;;;;5131964;27;20058;-56
2023/04/28 09:07:23;;;;;;;13.57;9.38;;;11.20;99.90;;;;;;5131539;27;20049;-62
2023/04/28 09:09:48;;;;;;;13.73;9.40;;;11.30;99.90;;;;;;5136045;27;20046;-58
2023/04/28 09:12:14;;;;;;;14.65;9.65;;;11.40;99.90;;;;;;5132572;27;20031;-56
2023/04/28 09:14:40;;;;;;;13.07;9.10;;;11.50;99.90;;;;;;5132154;27;20131;-61
2023/04/28 09:17:15;;;;;;;13.27;8.82;;;11.50;99.90;;;;;;5151349;27;20146;-57
2023/04/28 09:19:41;;;;;;;13.40;9.30;;;11.60;99.90;;;;;;5132055;27;20146;-61
2023/04/28 09:22:08;;;;;;;16.13;8.93;;;11.70;99.90;;;;;;5130325;27;20050;-61
2023/04/28 09:24:39;;;;;;;16.05;9.68;;;11.80;99.90;;;;;;5131458;27;20047;-57
2023/04/28 09:27:09;;;;;;;15.52;9.88;;;12.00;99.90;;;;;;5130533;27;20099;-58
2023/04/28 09:29:35;;;;;;;13.00;9.20;;;12.20;99.90;;;;;;5131842;27;20031;-58
2023/04/28 09:32:13;;;;;;;12.82;9.32;;;12.30;99.90;;;;;;5131647;27;20039;-57
2023/04/28 09:34:46;;;;;;;10.68;9.13;;;12.50;99.90;;;;;;5131284;27;20042;-60
2023/04/28 09:37:21;;;;;;;13.05;9.05;;;12.60;99.90;;;;;;5140612;27;20035;-58
2023/04/28 09:39:52;;;;;;;10.85;8.90;;;12.80;99.90;;;;;;5131821;27;20035;-57
2023/04/28 09:42:38;;;;;;;12.75;8.95;;;12.90;99.90;;;;;;5130999;27;20573;-60
2023/04/28 09:45:07;;;;;;;10.63;8.45;;;13.00;99.90;;;;;;5130943;27;20058;-58
2023/04/28 09:47:35;;;;;;;12.18;9.23;;;13.10;99.90;;;;;;5131408;27;20054;-58
2023/04/28 09:50:03;;;;;;;11.82;8.85;;;13.20;99.90;;;;;;5131310;27;20040;-60
2023/04/28 09:52:29;;;;;;;15.15;9.93;;;13.40;99.90;;;;;;5131070;27;20107;-60
2023/04/28 09:54:56;;;;;;;11.95;9.30;;;13.50;99.90;;;;;;5127513;27;20126;-59
2023/04/28 09:57:23;;;;;;;12.82;8.90;;;13.60;99.90;;;;;;5131141;27;20039;-56
2023/04/28 09:59:52;;;;;;;12.88;8.93;;;13.70;99.90;;;;;;5129956;27;20035;-58
2023/04/28 10:02:20;;;;;;;10.60;8.50;;;13.80;99.90;;;;;;5130428;27;20066;-60
2023/04/28 10:04:47;;;;;;;12.93;8.38;;;13.90;99.90;;;;;;5130416;27;20534;-56
2023/04/28 10:07:19;;;;;;;11.07;9.20;;;14.00;99.90;;;;;;5130645;27;20038;-60
2023/04/28 10:09:49;;;;;;;11.32;7.88;;;14.00;99.90;;;;;;5130216;27;20043;-57
2023/04/28 10:12:19;;;;;;;13.93;9.23;;;14.00;99.90;;;;;;5131525;27;20474;-56
2023/04/28 10:14:49;;;;;;;13.00;8.40;;;14.00;99.90;;;;;;5132601;27;20098;-58
2023/04/28 10:17:15;;;;;;;9.70;7.85;;;13.90;99.90;;;;;;5130160;27;20038;-57
2023/04/28 10:19:44;;;;;;;13.45;8.13;;;13.80;99.90;;;;;;5129100;27;20039;-57
2023/04/28 10:22:48;;;;;;;10.48;8.18;;;13.80;99.90;;;;;;5129800;27;20039;-56
2023/04/28 10:25:28;;;;;;;9.93;7.93;;;13.80;99.90;;;;;;5129026;27;20044;-59
2023/04/28 10:27:54;;;;;;;11.23;8.50;;;13.80;99.90;;;;;;5130531;27;20047;-59
2023/04/28 10:30:27;;;;;;;12.85;9.38;;;13.80;99.90;;;;;;5129713;27;20043;-56
2023/04/28 10:33:05;;;;;;;11.80;9.50;;;13.80;99.90;;;;;;5130910;27;20074;-58
2023/04/28 10:35:31;;;;;;;12.32;9.32;;;13.80;99.90;;;;;;5129748;27;20097;-58
2023/04/28 10:38:11;;;;;;;11.65;9.48;;;13.90;99.90;;;;;;5133344;27;20046;-58
2023/04/28 10:40:39;;;;;;;10.95;8.70;;;13.90;99.90;;;;;;5138610;27;20521;-58
2023/04/28 10:43:09;;;;;;;12.45;8.52;;;13.90;99.90;;;;;;5129289;27;20042;-59
2023/04/28 10:45:47;;;;;;;11.15;8.45;;;14.00;99.90;;;;;;5129583;27;20039;-58
2023/04/28 10:48:19;;;;;;;10.18;8.82;;;14.00;99.90;;;;;;5127090;27;20031;-54
2023/04/28 10:53:44;;;;;;;14.77;9.35;;;14.20;99.90;;;;;;5130169;27;20134;-60
2023/04/28 10:56:15;;;;;;;14.77;10.93;;;14.20;99.90;;;;;;5129372;27;20078;-58
2023/04/28 10:58:44;;;;;;;15.80;12.15;;;14.20;99.90;;;;;;5130641;27;20051;-58
2023/04/28 11:01:33;;;;;;;18.63;13.70;;;14.20;99.90;;;;;;5130623;27;20042;-61
2023/04/28 11:04:09;;;;;;;22.10;15.75;;;14.20;99.90;;;;;;5130383;27;20143;-60
2023/04/28 11:06:36;;;;;;;23.88;16.30;;;14.10;99.90;;;;;;5130021;27;20096;-55
2023/04/28 11:09:22;;;;;;;20.63;16.15;;;14.00;99.90;;;;;;5130785;27;20049;-59
2023/04/28 11:12:00;;;;;;;23.33;17.23;;;13.80;99.90;;;;;;5130347;27;20478;-58
2023/04/28 11:14:31;;;;;;;21.98;16.85;;;13.70;99.90;;;;;;5129796;27;20057;-58
2023/04/28 11:17:01;;;;;;;26.98;19.45;;;13.70;99.90;;;;;;5129932;27;20122;-58
2023/04/28 11:19:41;;;;;;;26.33;22.13;;;13.70;99.90;;;;;;5131831;27;20042;-56
2023/04/28 11:22:15;;;;;;;29.02;24.98;;;13.70;99.90;;;;;;5134129;27;20080;-58
2023/04/28 11:24:53;;;;;;;31.48;27.90;;;13.60;99.90;;;;;;5133974;27;20131;-58
2023/04/28 11:27:24;;;;;;;37.25;28.98;;;13.60;99.90;;;;;;5133622;27;20486;-57
2023/04/28 11:29:49;;;;;;;33.47;28.92;;;13.70;99.90;;;;;;5134130;27;20039;-54
2023/04/28 11:32:15;;;;;;;34.85;31.15;;;13.70;99.90;;;;;;5134078;27;20038;-59
2023/04/28 11:34:41;;;;;;;37.05;32.15;;;13.60;99.90;;;;;;5133646;27;20050;-58
2023/04/28 11:37:08;;;;;;;37.45;31.95;;;13.50;99.90;;;;;;5134078;27;20039;-56
2023/04/28 11:39:34;;;;;;;40.55;33.17;;;13.50;99.90;;;;;;5134011;27;20058;-57
2023/04/28 11:42:02;;;;;;;35.00;30.95;;;13.50;99.90;;;;;;5133551;27;20039;-57
2023/04/28 11:44:30;;;;;;;33.97;30.00;;;13.60;99.90;;;;;;5130025;27;20039;-57
2023/04/28 11:47:01;;;;;;;34.85;31.05;;;13.50;99.90;;;;;;5132269;27;20039;-55
2023/04/28 11:49:32;;;;;;;34.92;31.15;;;13.50;99.90;;;;;;5133487;27;20031;-57
2023/04/28 11:52:04;;;;;;;37.03;30.80;;;13.50;99.90;;;;;;5133732;27;20035;-56
2023/04/28 11:54:30;;;;;;;42.10;33.40;;;13.40;99.90;;;;;;5163805;27;20060;-56
2023/04/28 11:56:57;;;;;;;43.80;35.70;;;13.40;99.90;;;;;;5176307;27;20045;-57
2023/04/28 11:59:34;;;;;;;39.15;35.22;;;13.40;99.90;;;;;;5174821;27;20404;-59
2023/04/28 12:02:04;;;;;;;39.30;34.42;;;13.40;99.90;;;;;;5175020;27;20110;-59
2023/04/28 12:04:35;;;;;;;43.00;34.85;;;13.30;99.90;;;;;;5174089;27;20086;-57
2023/04/28 12:07:12;;;;;;;38.55;34.35;;;13.30;99.90;;;;;;5142004;27;20058;-57
2023/04/28 12:09:39;;;;;;;40.92;35.72;;;13.30;99.90;;;;;;5172310;27;20103;-56
2023/04/28 12:12:10;;;;;;;39.05;34.75;;;13.30;99.90;;;;;;5174401;27;20034;-56
2023/04/28 12:15:05;;;;;;;43.10;34.80;;;13.30;99.90;;;;;;5135003;27;20085;-54
2023/04/28 12:17:36;;;;;;;;;;;13.30;99.90;;;;;;5140915;27;20092;-55
2023/04/28 12:20:04;;;;;;;41.67;34.15;;;13.20;99.90;;;;;;5141722;27;19915;-58
2023/04/28 12:22:30;;;;;;;44.38;39.25;;;13.20;99.90;;;;;;5133913;27;20040;-57
2023/04/28 12:25:07;;;;;;;43.78;39.05;;;13.10;99.90;;;;;;5133920;27;20046;-56
2023/04/28 12:27:35;;;;;;;44.47;39.67;;;13.20;99.90;;;;;;5169985;27;20030;-56
2023/04/28 12:30:01;;;;;;;46.65;41.67;;;13.10;99.90;;;;;;5173981;27;20034;-54
2023/04/28 12:32:40;;;;;;;49.90;44.63;;;13.10;99.90;;;;;;5171368;27;20450;-59
2023/04/28 12:35:07;;;;;;;50.00;44.95;;;13.10;99.90;;;;;;5174233;27;20373;-59
2023/04/28 12:37:32;;;;;;;49.72;44.65;;;13.00;99.90;;;;;;5173137;27;20088;-57
2023/04/28 12:39:59;;;;;;;52.28;43.33;;;13.10;99.90;;;;;;5173639;27;20066;-58
2023/04/28 12:42:25;;;;;;;49.22;44.20;;;13.10;99.90;;;;;;5133786;27;20076;-54